Time;durP1;ratioP1;P1;durP2;ratioP2;P2;SDS_P1;SDS_P2;PMS_P1;PMS_P2;Temp;Humidity;BMP_temperature;BMP_pressure;BME280_temperature;BME280_humidity;BME280_pressure;Samples;Min_cycle;Max_cycle;Signal;HPM_P1;HPM_P2
2023/06/07 00:02:17;;;;;;;;;;;;;;;22.58;42.26;95726.88;10312149;28;1878;-63
2023/06/07 00:07:18;;;;;;;;;;;;;;;22.58;42.45;95724.22;10310190;28;2161;-63
2023/06/07 00:12:18;;;;;;;;;;;;;;;22.57;42.46;95719.97;10308587;28;2618;-63
2023/06/07 00:17:18;;;;;;;;;;;;;;;22.57;42.53;95709.41;10310707;28;1950;-63
2023/06/07 00:22:18;;;;;;;;;;;;;;;22.57;42.47;95712.03;10312777;28;2068;-63
2023/06/07 00:27:19;;;;;;;;;;;;;;;22.56;42.41;95707.84;10303928;28;1915;-63
2023/06/07 00:32:19;;;;;;;;;;;;;;;22.55;42.42;95708.91;10309644;28;1910;-63
2023/06/07 00:37:19;;;;;;;;;;;;;;;22.56;42.42;95701.78;10308101;28;1887;-63
2023/06/07 00:42:20;;;;;;;;;;;;;;;22.56;42.46;95702.56;10307680;28;1870;-63
2023/06/07 00:47:20;;;;;;;;;;;;;;;22.54;42.40;95696.00;10303297;28;4342;-63
2023/06/07 00:52:21;;;;;;;;;;;;;;;22.55;42.22;95694.91;10313194;28;2043;-62
2023/06/07 00:57:21;;;;;;;;;;;;;;;22.53;42.41;95689.91;10288454;28;1976;-63
2023/06/07 01:02:21;;;;;;;;;;;;;;;22.53;42.43;95686.47;10308117;28;1928;-63
2023/06/07 01:07:24;;;;;;;;;;;;;;;22.54;42.14;95685.44;10309371;28;2042;-63
2023/06/07 01:12:25;;;;;;;;;;;;;;;22.53;42.27;95691.75;10307204;28;1932;-63
2023/06/07 01:17:26;;;;;;;;;;;;;;;22.53;42.42;95678.56;10308091;28;2215;-63
2023/06/07 01:22:27;;;;;;;;;;;;;;;22.52;42.23;95680.41;10308450;28;2258;-63
2023/06/07 01:27:30;;;;;;;;;;;;;;;22.51;42.32;95678.84;10308917;28;1952;-63
2023/06/07 01:32:30;;;;;;;;;;;;;;;22.51;42.18;95678.84;10313333;28;2164;-64
2023/06/07 01:37:31;;;;;;;;;;;;;;;22.51;42.30;95686.78;10297511;28;1955;-63
2023/06/07 01:42:32;;;;;;;;;;;;;;;22.50;42.29;95676.50;10303337;28;2029;-63
2023/06/07 01:47:32;;;;;;;;;;;;;;;22.50;42.10;95674.63;10308525;28;4503;-63
2023/06/07 01:52:32;;;;;;;;;;;;;;;22.49;42.24;95670.44;10307138;28;2074;-63
2023/06/07 01:57:35;;;;;;;;;;;;;;;22.49;42.19;95673.06;10306669;28;2022;-63
2023/06/07 02:02:36;;;;;;;;;;;;;;;22.49;42.23;95670.44;10305479;28;2272;-63
2023/06/07 02:07:36;;;;;;;;;;;;;;;22.49;42.02;95667.78;10303568;28;2076;-64
2023/06/07 02:12:37;;;;;;;;;;;;;;;22.49;42.17;95667.78;10301460;28;2168;-63
2023/06/07 02:18:04;;;;;;;;;;;;;;;22.48;42.26;95668.09;10302134;28;2255;-64
2023/06/07 02:23:06;;;;;;;;;;;;;;;22.47;42.25;95669.13;10302317;28;1964;-64
2023/06/07 02:28:06;;;;;;;;;;;;;;;22.47;41.97;95669.94;10306429;28;1916;-63
2023/06/07 02:33:13;;;;;;;;;;;;;;;22.47;42.05;95679.72;10303106;28;1983;-64
2023/06/07 02:38:13;;;;;;;;;;;;;;;22.46;41.98;95673.63;10305701;28;2012;-64
2023/06/07 02:43:14;;;;;;;;;;;;;;;22.46;42.19;95680.78;10306875;28;4573;-63
2023/06/07 02:48:16;;;;;;;;;;;;;;;22.46;41.90;95681.56;10304932;28;1963;-64
2023/06/07 02:53:16;;;;;;;;;;;;;;;22.44;41.84;95678.41;10307276;28;1986;-63
2023/06/07 02:58:16;;;;;;;;;;;;;;;22.44;41.91;95681.06;10303683;28;2230;-63
2023/06/07 03:03:17;;;;;;;;;;;;;;;22.44;42.12;95681.06;10300234;28;2004;-64
2023/06/07 03:08:17;;;;;;;;;;;;;;;22.44;41.98;95682.94;10301906;28;1940;-63
2023/06/07 03:13:17;;;;;;;;;;;;;;;22.44;42.14;95681.06;10305599;28;1952;-64
2023/06/07 03:18:18;;;;;;;;;;;;;;;22.43;42.19;95687.44;10285069;28;1975;-64
2023/06/07 03:23:18;;;;;;;;;;;;;;;22.43;42.08;95691.91;10301058;28;1968;-63
2023/06/07 03:28:18;;;;;;;;;;;;;;;22.41;42.12;95689.56;10299203;28;1912;-63
2023/06/07 03:33:18;;;;;;;;;;;;;;;22.42;42.14;95700.94;10306463;28;2022;-63
2023/06/07 03:38:20;;;;;;;;;;;;;;;22.43;42.10;95705.91;10316334;28;2040;-64
2023/06/07 03:43:20;;;;;;;;;;;;;;;22.43;42.15;95713.84;10316007;28;4474;-63
2023/06/07 03:48:20;;;;;;;;;;;;;;;22.42;41.98;95712.25;10313318;28;1932;-62
2023/06/07 03:53:20;;;;;;;;;;;;;;;22.43;41.94;95703.28;10318276;28;2192;-63
2023/06/07 03:58:20;;;;;;;;;;;;;;;22.43;42.20;95713.84;10317876;28;2053;-63
2023/06/07 04:03:28;;;;;;;;;;;;;;;22.43;42.20;95716.47;10317931;28;2004;-63
2023/06/07 04:08:28;;;;;;;;;;;;;;;22.43;41.91;95726.25;10314762;28;1937;-63
2023/06/07 04:13:28;;;;;;;;;;;;;;;22.43;42.06;95729.69;10315383;28;2205;-63
2023/06/07 04:18:28;;;;;;;;;;;;;;;22.43;42.12;95723.59;10315392;28;1982;-63
2023/06/07 04:23:29;;;;;;;;;;;;;;;22.43;42.28;95729.69;10317661;28;1998;-63
2023/06/07 04:28:30;;;;;;;;;;;;;;;22.45;42.20;95726.75;10318297;28;1877;-63
2023/06/07 04:33:32;;;;;;;;;;;;;;;22.44;42.26;95720.69;10317388;28;1925;-64
2023/06/07 04:38:32;;;;;;;;;;;;;;;22.44;42.28;95728.59;10316415;28;1972;-63
2023/06/07 04:43:36;;;;;;;;;;;;;;;22.44;42.27;95725.97;10315995;28;4504;-64
2023/06/07 04:48:40;;;;;;;;;;;;;;;22.43;42.35;95729.69;10303269;28;1936;-63
2023/06/07 04:53:42;;;;;;;;;;;;;;;22.44;42.46;95731.25;10306892;28;2515;-63
2023/06/07 04:58:43;;;;;;;;;;;;;;;22.45;42.50;95732.81;10303990;28;1935;-63
2023/06/07 05:03:43;;;;;;;;;;;;;;;22.45;42.46;95732.03;10306581;28;1978;-63
2023/06/07 05:08:43;;;;;;;;;;;;;;;22.45;42.33;95732.81;10301913;28;1913;-64
2023/06/07 05:13:43;;;;;;;;;;;;;;;22.46;42.31;95733.63;10308385;28;1902;-63
2023/06/07 05:18:46;;;;;;;;;;;;;;;22.45;42.53;95738.09;10307119;28;1958;-63
2023/06/07 05:23:46;;;;;;;;;;;;;;;22.46;42.65;95734.38;10307896;28;1961;-64
2023/06/07 05:28:46;;;;;;;;;;;;;;;22.46;42.64;95744.19;10303072;28;1851;-64
2023/06/07 05:33:47;;;;;;;;;;;;;;;22.46;42.65;95742.31;10307775;28;1852;-64
2023/06/07 05:38:47;;;;;;;;;;;;;;;22.47;42.83;95735.19;10311241;28;1996;-64
2023/06/07 05:43:47;;;;;;;;;;;;;;;22.47;42.70;95745.75;10304462;28;4572;-64
2023/06/07 05:48:48;;;;;;;;;;;;;;;22.47;42.87;95746.53;10300687;28;1717;-62
2023/06/07 05:53:48;;;;;;;;;;;;;;;22.48;42.91;95747.31;10306626;28;1799;-61
2023/06/07 05:58:52;;;;;;;;;;;;;;;22.49;42.96;95747.03;10305872;28;1902;-61
2023/06/07 06:03:52;;;;;;;;;;;;;;;22.50;43.12;95748.59;10307301;28;1868;-62
2023/06/07 06:08:52;;;;;;;;;;;;;;;22.51;43.23;95747.53;10304415;28;2065;-61
2023/06/07 06:13:52;;;;;;;;;;;;;;;22.52;43.36;95757.00;10306447;28;1906;-61
2023/06/07 06:18:53;;;;;;;;;;;;;;;22.55;43.57;95742.44;10304646;28;1981;-62
2023/06/07 06:23:53;;;;;;;;;;;;;;;22.54;43.58;95743.53;10304799;28;1906;-61
2023/06/07 06:28:53;;;;;;;;;;;;;;;22.55;43.68;95745.88;10303719;28;1993;-60
2023/06/07 06:33:53;;;;;;;;;;;;;;;22.54;43.48;95749.63;10300259;28;1855;-60
2023/06/07 06:38:54;;;;;;;;;;;;;;;22.54;43.82;95752.25;10304932;28;2053;-60
2023/06/07 06:43:54;;;;;;;;;;;;;;;22.54;43.67;95754.91;10305509;28;4412;-66
2023/06/07 06:48:55;;;;;;;;;;;;;;;22.54;43.82;95757.53;10308168;28;1819;-66
2023/06/07 06:53:55;;;;;;;;;;;;;;;22.55;43.66;95758.31;10304793;28;2057;-67
2023/06/07 06:58:55;;;;;;;;;;;;;;;22.56;43.76;95754.59;10299537;28;2379;-66
2023/06/07 07:03:56;;;;;;;;;;;;;;;22.55;43.83;95745.09;10299100;28;1823;-68
2023/06/07 07:08:56;;;;;;;;;;;;;;;22.58;44.03;95749.84;10303629;28;1910;-67
2023/06/07 07:13:56;;;;;;;;;;;;;;;22.59;43.45;95749.56;10301520;28;1889;-66
2023/06/07 07:18:57;;;;;;;;;;;;;;;22.61;43.65;95757.97;10301613;28;1895;-65
2023/06/07 07:23:57;;;;;;;;;;;;;;;22.63;43.49;95755.06;10296563;28;1963;-65
2023/06/07 07:28:57;;;;;;;;;;;;;;;22.63;43.35;95755.84;10298943;28;1862;-66
2023/06/07 07:33:57;;;;;;;;;;;;;;;22.64;43.70;95757.44;10300845;28;1851;-65
2023/06/07 07:38:59;;;;;;;;;;;;;;;22.65;43.85;95763.47;10299110;28;2394;-65
2023/06/07 07:43:59;;;;;;;;;;;;;;;22.65;43.78;95758.97;10293455;28;4538;-67
2023/06/07 07:49:00;;;;;;;;;;;;;;;22.67;43.84;95760.56;10300420;28;1909;-66
2023/06/07 07:54:00;;;;;;;;;;;;;;;22.67;43.48;95756.84;10299508;28;1887;-70
2023/06/07 07:59:00;;;;;;;;;;;;;;;22.69;44.00;95753.13;10296500;28;1915;-65
2023/06/07 08:04:01;;;;;;;;;;;;;;;22.71;43.64;95748.34;10303488;28;1838;-66
2023/06/07 08:09:02;;;;;;;;;;;;;;;22.70;43.92;95742.28;10294837;28;1902;-65
2023/06/07 08:14:02;;;;;;;;;;;;;;;22.72;43.58;95747.25;10297861;28;1827;-68
2023/06/07 08:19:03;;;;;;;;;;;;;;;22.72;44.03;95742.78;10303770;28;1895;-69
2023/06/07 08:24:03;;;;;;;;;;;;;;;22.74;44.04;95748.56;10314237;28;1417;-67
2023/06/07 08:29:03;;;;;;;;;;;;;;;22.74;44.04;95739.84;10307809;28;1880;-66
2023/06/07 08:34:04;;;;;;;;;;;;;;;22.76;43.96;95754.34;10308912;28;2839;-64
2023/06/07 08:39:04;;;;;;;;;;;;;;;22.75;43.93;95744.81;10306715;28;2000;-65
2023/06/07 08:44:04;;;;;;;;;;;;;;;22.75;43.99;95744.06;10286257;28;4510;-62
2023/06/07 08:49:05;;;;;;;;;;;;;;;22.75;43.80;95744.81;10304787;28;2018;-64
2023/06/07 08:54:05;;;;;;;;;;;;;;;22.75;43.73;95747.47;10299803;28;2021;-63
2023/06/07 08:59:05;;;;;;;;;;;;;;;22.73;43.24;95749.63;10294727;28;2015;-63
2023/06/07 09:04:06;;;;;;;;;;;;;;;22.72;43.11;95741.97;10307219;28;1858;-62
2023/06/07 09:09:06;;;;;;;;;;;;;;;22.72;43.54;95747.25;10304883;28;1903;-64
2023/06/07 09:14:07;;;;;;;;;;;;;;;22.72;43.43;95741.97;10301989;28;1899;-63
2023/06/07 09:19:07;;;;;;;;;;;;;;;22.72;43.88;95732.19;10303399;28;1971;-64
2023/06/07 09:24:07;;;;;;;;;;;;;;;22.73;43.50;95743.56;10301946;28;1990;-63
2023/06/07 09:29:08;;;;;;;;;;;;;;;22.73;43.29;95741.69;10303035;28;1899;-63
2023/06/07 09:34:21;;;;;;;;;;;;;;;22.72;43.29;95745.41;10301532;28;2323;-63
2023/06/07 09:39:22;;;;;;;;;;;;;;;22.73;43.31;95743.56;10299802;28;2281;-62
2023/06/07 09:44:26;;;;;;;;;;;;;;;22.72;43.53;95737.50;10301551;28;4413;-60
2023/06/07 09:49:34;;;;;;;;;;;;;;;22.74;43.79;95735.34;10302099;28;1999;-61
2023/06/07 09:54:39;;;;;;;;;;;;;;;22.76;43.75;95737.69;10303752;28;1898;-62
2023/06/07 09:59:39;;;;;;;;;;;;;;;22.77;43.79;95741.91;10302304;28;1895;-62
2023/06/07 10:04:39;;;;;;;;;;;;;;;22.77;43.70;95732.13;10284739;28;1912;-64
2023/06/07 10:09:40;;;;;;;;;;;;;;;22.80;43.90;95728.13;10302925;28;1919;-64
2023/06/07 10:14:40;;;;;;;;;;;;;;;22.80;43.59;95718.34;10290780;28;1911;-65
2023/06/07 10:19:41;;;;;;;;;;;;;;;22.81;43.82;95719.13;10303642;28;1954;-65
2023/06/07 10:24:54;;;;;;;;;;;;;;;22.83;43.67;95719.63;10299707;28;1950;-64
2023/06/07 10:29:57;;;;;;;;;;;;;;;22.84;43.92;95723.81;10300221;28;2443;-64
2023/06/07 10:34:57;;;;;;;;;;;;;;;22.84;43.59;95729.09;10307514;28;1926;-64
2023/06/07 10:39:58;;;;;;;;;;;;;;;22.83;43.59;95715.13;10305520;28;1978;-64
2023/06/07 10:44:58;;;;;;;;;;;;;;;22.82;43.29;95715.41;10303339;28;4432;-64
2023/06/07 10:49:58;;;;;;;;;;;;;;;22.81;43.40;95719.13;10307555;28;1843;-64
2023/06/07 10:54:58;;;;;;;;;;;;;;;22.80;43.13;95706.97;10302774;28;1863;-64
2023/06/07 11:00:17;;;;;;;;;;;;;;;22.80;42.90;95717.53;10306503;28;1930;-64
2023/06/07 11:05:18;;;;;;;;;;;;;;;22.80;42.85;95712.25;10285985;28;1875;-63
2023/06/07 11:10:18;;;;;;;;;;;;;;;22.80;42.77;95707.75;10295123;28;1875;-64
2023/06/07 11:15:24;;;;;;;;;;;;;;;22.80;42.93;95704.34;10298260;28;1931;-62
2023/06/07 11:20:40;;;;;;;;;;;;;;;22.79;42.58;95710.69;10301596;28;1954;-63
2023/06/07 11:25:40;;;;;;;;;;;;;;;22.76;41.86;95706.78;10300457;28;2287;-62
2023/06/07 11:30:41;;;;;;;;;;;;;;;22.74;41.80;95702.84;10299504;28;1881;-62
2023/06/07 11:35:41;;;;;;;;;;;;;;;22.74;42.21;95698.34;10302021;28;1842;-65
2023/06/07 11:40:42;;;;;;;;;;;;;;;22.75;42.21;95699.91;10299931;28;1974;-63
2023/06/07 11:45:43;;;;;;;;;;;;;;;22.76;42.15;95690.13;10299754;28;4446;-63
2023/06/07 11:50:43;;;;;;;;;;;;;;;22.76;41.94;95679.56;10301415;28;1882;-62
2023/06/07 11:55:43;;;;;;;;;;;;;;;22.75;41.79;95683.28;10300293;28;1878;-63
2023/06/07 12:00:44;;;;;;;;;;;;;;;22.75;41.91;95672.72;10309440;28;1947;-64
2023/06/07 12:05:44;;;;;;;;;;;;;;;22.76;41.97;95663.69;10305899;28;1923;-63
2023/06/07 12:10:54;;;;;;;;;;;;;;;22.75;41.70;95662.16;10293782;28;1808;-64
2023/06/07 12:15:55;;;;;;;;;;;;;;;22.74;41.41;95650.00;10307307;28;1882;-63
2023/06/07 12:21:01;;;;;;;;;;;;;;;22.75;41.47;95648.94;10309826;28;2243;-64
2023/06/07 12:26:07;;;;;;;;;;;;;;;22.72;41.19;95646.84;10306350;28;1931;-65
2023/06/07 12:31:20;;;;;;;;;;;;;;;22.73;40.97;95643.91;10299885;28;1977;-63
2023/06/07 12:36:21;;;;;;;;;;;;;;;22.74;41.04;95634.13;10305087;28;1929;-63
2023/06/07 12:41:23;;;;;;;;;;;;;;;22.73;40.77;95635.97;10306797;28;2108;-62
2023/06/07 12:46:24;;;;;;;;;;;;;;;22.73;41.05;95627.28;10304762;28;4471;-62
2023/06/07 12:51:25;;;;;;;;;;;;;;;22.73;41.05;95625.41;10306607;28;1898;-63
2023/06/07 12:56:25;;;;;;;;;;;;;;;22.74;41.17;95623.56;10303959;28;1890;-63
2023/06/07 13:01:26;;;;;;;;;;;;;;;22.75;41.21;95611.94;10304466;28;1891;-62
2023/06/07 13:06:28;;;;;;;;;;;;;;;22.75;41.13;95612.69;10302958;28;1851;-62
2023/06/07 13:11:28;;;;;;;;;;;;;;;22.76;41.26;95613.50;10303152;28;1918;-62
2023/06/07 13:16:30;;;;;;;;;;;;;;;22.76;41.25;95608.19;10272906;28;2486;-62
2023/06/07 13:21:30;;;;;;;;;;;;;;;22.75;40.43;95602.13;10304238;28;1966;-63
2023/06/07 13:26:30;;;;;;;;;;;;;;;22.73;39.62;95596.34;10300962;28;2012;-66
2023/06/07 13:31:30;;;;;;;;;;;;;;;22.74;39.59;95590.00;10301543;28;1917;-64
2023/06/07 13:36:31;;;;;;;;;;;;;;;22.75;39.54;95582.88;10308158;28;1760;-64
2023/06/07 13:41:31;;;;;;;;;;;;;;;22.76;40.03;95576.50;10304074;28;1910;-63
2023/06/07 13:46:31;;;;;;;;;;;;;;;22.78;40.30;95579.63;10285638;28;4539;-63
2023/06/07 13:51:34;;;;;;;;;;;;;;;22.80;40.59;95575.63;10303897;28;1883;-63
2023/06/07 13:56:34;;;;;;;;;;;;;;;22.83;40.50;95571.63;10287318;28;1925;-64
2023/06/07 14:01:35;;;;;;;;;;;;;;;22.84;40.98;95567.88;10303968;28;1919;-64
2023/06/07 14:06:37;;;;;;;;;;;;;;;22.86;40.69;95563.09;10289274;28;1832;-64
2023/06/07 14:11:39;;;;;;;;;;;;;;;22.88;41.13;95555.66;10303685;28;2139;-63
2023/06/07 14:16:39;;;;;;;;;;;;;;;22.89;41.06;95558.03;10302361;28;2145;-63
2023/06/07 14:21:39;;;;;;;;;;;;;;;22.91;40.82;95549.81;10302077;28;1958;-64
2023/06/07 14:26:39;;;;;;;;;;;;;;;22.90;41.08;95548.22;10284308;28;1910;-64
2023/06/07 14:31:40;;;;;;;;;;;;;;;22.91;41.05;95545.31;10286006;28;2090;-64
2023/06/07 14:36:40;;;;;;;;;;;;;;;22.90;41.16;95551.66;10282824;28;1910;-65
2023/06/07 14:41:41;;;;;;;;;;;;;;;22.91;41.21;95544.50;10298597;28;1910;-65
2023/06/07 14:46:41;;;;;;;;;;;;;;;22.92;41.43;95546.06;10294051;28;4428;-65
2023/06/07 14:51:41;;;;;;;;;;;;;;;22.91;41.29;95534.72;10297733;28;1824;-66
2023/06/07 14:56:41;;;;;;;;;;;;;;;22.93;41.48;95540.50;10294277;28;1862;-65
2023/06/07 15:01:42;;;;;;;;;;;;;;;22.93;41.18;95539.72;10299242;28;1989;-65
2023/06/07 15:06:42;;;;;;;;;;;;;;;22.93;41.44;95537.06;10297514;28;1941;-66
2023/06/07 15:11:43;;;;;;;;;;;;;;;22.93;41.45;95540.50;10296287;28;2349;-64
2023/06/07 15:16:43;;;;;;;;;;;;;;;22.94;41.40;95530.69;10298494;28;1888;-66
2023/06/07 15:21:43;;;;;;;;;;;;;;;22.94;41.49;95528.06;10299122;28;2218;-65
2023/06/07 15:26:43;;;;;;;;;;;;;;;22.95;41.53;95527.00;10289995;28;1890;-66
2023/06/07 15:31:45;;;;;;;;;;;;;;;22.94;41.84;95523.56;10295449;28;1859;-66
2023/06/07 15:36:45;;;;;;;;;;;;;;;22.94;41.61;95515.63;10292894;28;1910;-66
2023/06/07 15:41:48;;;;;;;;;;;;;;;22.96;41.56;95517.97;10293796;28;1973;-65
2023/06/07 15:46:48;;;;;;;;;;;;;;;22.92;39.83;95514.34;10289253;28;4373;-65
2023/06/07 15:51:49;;;;;;;;;;;;;;;22.88;39.94;95513.38;10277016;28;1869;-64
2023/06/07 15:56:49;;;;;;;;;;;;;;;22.88;39.91;95522.09;10293038;28;1903;-64
2023/06/07 16:01:49;;;;;;;;;;;;;;;22.86;39.39;95521.59;10294649;28;1921;-63
2023/06/07 16:06:49;;;;;;;;;;;;;;;22.84;39.13;95512.38;10291655;28;2300;-63
2023/06/07 16:11:50;;;;;;;;;;;;;;;22.81;38.80;95505.06;10294880;28;2014;-63
2023/06/07 16:16:51;;;;;;;;;;;;;;;22.79;38.73;95510.66;10299902;28;1823;-63
2023/06/07 16:21:51;;;;;;;;;;;;;;;22.76;38.44;95502.50;10299325;28;1943;-63
2023/06/07 16:26:52;;;;;;;;;;;;;;;22.76;38.40;95513.88;10297149;28;1855;-65
2023/06/07 16:31:52;;;;;;;;;;;;;;;22.75;38.42;95514.16;10297748;28;1843;-65
2023/06/07 16:36:52;;;;;;;;;;;;;;;22.74;38.40;95513.38;10296289;28;1840;-65
2023/06/07 16:41:52;;;;;;;;;;;;;;;22.73;38.21;95506.50;10299536;28;1972;-65
2023/06/07 16:46:54;;;;;;;;;;;;;;;22.72;38.11;95502.31;10302518;28;4335;-64
2023/06/07 16:51:54;;;;;;;;;;;;;;;22.73;38.17;95495.19;10317764;28;1960;-65
2023/06/07 16:56:55;;;;;;;;;;;;;;;22.73;37.90;95489.91;10301731;28;2302;-65
2023/06/07 17:01:55;;;;;;;;;;;;;;;22.73;38.09;95489.91;10303495;28;2307;-65
2023/06/07 17:06:55;;;;;;;;;;;;;;;22.71;38.19;95492.03;10298958;28;1862;-64
2023/06/07 17:11:56;;;;;;;;;;;;;;;22.71;37.83;95497.34;10305945;28;1835;-64
2023/06/07 17:16:56;;;;;;;;;;;;;;;22.70;37.78;95493.09;10306064;28;1941;-65
2023/06/07 17:21:56;;;;;;;;;;;;;;;22.67;37.57;95482.06;10309044;28;1946;-64
2023/06/07 17:26:56;;;;;;;;;;;;;;;22.67;37.52;95482.06;10307655;28;1894;-65
2023/06/07 17:31:57;;;;;;;;;;;;;;;22.67;37.30;95491.81;10295438;28;1823;-65
2023/06/07 17:36:57;;;;;;;;;;;;;;;22.67;37.67;95497.91;10297003;28;1898;-64
2023/06/07 17:41:57;;;;;;;;;;;;;;;22.67;37.64;95503.19;10296236;28;1966;-65
2023/06/07 17:46:57;;;;;;;;;;;;;;;22.67;37.73;95506.91;10302478;28;4381;-65
2023/06/07 17:51:58;;;;;;;;;;;;;;;22.67;37.38;95505.03;10297425;28;1924;-65
2023/06/07 17:56:58;;;;;;;;;;;;;;;22.67;37.65;95505.84;10297871;28;2320;-65
2023/06/07 18:01:58;;;;;;;;;;;;;;;22.65;37.51;95513.25;10299566;28;1981;-64
2023/06/07 18:06:58;;;;;;;;;;;;;;;22.67;37.74;95509.56;10298364;28;1863;-64
2023/06/07 18:11:59;;;;;;;;;;;;;;;22.67;37.61;95512.19;10299296;28;1919;-64
2023/06/07 18:16:59;;;;;;;;;;;;;;;22.65;37.38;95507.97;10298252;28;2283;-65
2023/06/07 18:22:00;;;;;;;;;;;;;;;22.63;37.17;95515.41;10300547;28;1950;-64
2023/06/07 18:27:00;;;;;;;;;;;;;;;22.63;37.08;95512.78;10299983;28;1917;-65
2023/06/07 18:32:00;;;;;;;;;;;;;;;22.63;37.14;95511.97;10300080;28;1831;-64
2023/06/07 18:37:01;;;;;;;;;;;;;;;22.64;37.16;95513.56;10297285;28;1882;-65
2023/06/07 18:42:01;;;;;;;;;;;;;;;22.63;37.20;95510.13;10297164;28;2094;-65
2023/06/07 18:47:01;;;;;;;;;;;;;;;22.62;37.29;95516.50;10296389;28;4490;-64
2023/06/07 18:52:06;;;;;;;;;;;;;;;22.63;37.37;95517.28;10298150;28;1936;-64
2023/06/07 18:57:08;;;;;;;;;;;;;;;22.63;37.44;95518.06;10298763;28;2278;-64
2023/06/07 19:02:08;;;;;;;;;;;;;;;22.62;37.55;95526.28;10297700;28;1973;-64
2023/06/07 19:07:08;;;;;;;;;;;;;;;22.63;37.60;95518.06;10293284;28;2198;-63
2023/06/07 19:12:10;;;;;;;;;;;;;;;22.64;37.65;95529.41;10299969;28;1898;-64
2023/06/07 19:17:10;;;;;;;;;;;;;;;22.63;37.74;95520.69;10296195;28;2261;-64
2023/06/07 19:22:10;;;;;;;;;;;;;;;22.64;37.53;95529.41;10298430;28;1942;-64
2023/06/07 19:27:11;;;;;;;;;;;;;;;22.64;37.88;95530.22;10308183;28;2098;-64
2023/06/07 19:32:11;;;;;;;;;;;;;;;22.65;38.10;95542.31;10302869;28;1819;-64
2023/06/07 19:37:11;;;;;;;;;;;;;;;22.67;38.08;95534.09;10299549;28;1878;-63
2023/06/07 19:42:12;;;;;;;;;;;;;;;22.67;38.20;95534.09;10299147;28;1964;-64
2023/06/07 19:47:12;;;;;;;;;;;;;;;22.69;38.53;95544.41;10272987;28;4453;-64
2023/06/07 19:52:13;;;;;;;;;;;;;;;22.68;38.70;95535.69;10302061;28;2255;-64
2023/06/07 19:57:13;;;;;;;;;;;;;;;22.70;38.75;95548.59;10303083;28;1889;-62
2023/06/07 20:02:13;;;;;;;;;;;;;;;22.72;39.02;95549.88;10301058;28;1944;-60
2023/06/07 20:07:14;;;;;;;;;;;;;;;22.72;38.93;95549.88;10304579;28;1867;-67
2023/06/07 20:12:14;;;;;;;;;;;;;;;22.72;39.18;95549.09;10292311;28;2337;-64
2023/06/07 20:17:14;;;;;;;;;;;;;;;22.74;39.13;95560.16;10306326;28;1879;-68
2023/06/07 20:22:15;;;;;;;;;;;;;;;22.75;39.10;95564.38;10307125;28;1897;-68
2023/06/07 20:27:15;;;;;;;;;;;;;;;22.77;39.48;95564.88;10305241;28;1862;-66
2023/06/07 20:32:15;;;;;;;;;;;;;;;22.77;39.33;95560.38;10306434;28;1910;-67
2023/06/07 20:37:16;;;;;;;;;;;;;;;22.80;39.58;95558.97;10313078;28;1952;-64
2023/06/07 20:42:16;;;;;;;;;;;;;;;22.78;39.85;95555.84;10298464;28;2118;-65
2023/06/07 20:47:17;;;;;;;;;;;;;;;22.80;40.18;95559.78;10305298;28;4302;-64
2023/06/07 20:52:17;;;;;;;;;;;;;;;22.81;40.32;95555.28;10307405;28;1899;-66
2023/06/07 20:57:17;;;;;;;;;;;;;;;22.82;40.21;95546.25;10312110;28;1847;-66
2023/06/07 21:02:17;;;;;;;;;;;;;;;22.82;40.24;95549.69;10304062;28;1992;-66
2023/06/07 21:07:18;;;;;;;;;;;;;;;22.84;40.72;95544.09;10309751;28;1958;-66
2023/06/07 21:12:18;;;;;;;;;;;;;;;22.85;40.28;95537.75;10308285;28;1878;-66
2023/06/07 21:17:18;;;;;;;;;;;;;;;22.87;40.62;95543.53;10306847;28;2312;-66
2023/06/07 21:22:19;;;;;;;;;;;;;;;22.86;40.46;95544.59;10307021;28;1985;-66
2023/06/07 21:27:19;;;;;;;;;;;;;;;22.87;40.42;95543.53;10308028;28;1959;-66
2023/06/07 21:32:19;;;;;;;;;;;;;;;22.89;40.80;95546.66;10304654;28;1883;-65
2023/06/07 21:37:20;;;;;;;;;;;;;;;22.89;40.78;95541.38;10311858;28;1908;-66
2023/06/07 21:42:20;;;;;;;;;;;;;;;22.89;40.91;95544.03;10305366;28;2466;-65
2023/06/07 21:47:20;;;;;;;;;;;;;;;22.89;41.02;95542.16;10303468;28;4349;-65
2023/06/07 21:52:20;;;;;;;;;;;;;;;22.90;40.90;95542.94;10306737;28;1835;-66
2023/06/07 21:57:21;;;;;;;;;;;;;;;22.90;41.07;95543.72;10306040;28;1819;-65
2023/06/07 22:02:22;;;;;;;;;;;;;;;22.91;40.95;95541.88;10309986;28;1954;-65
2023/06/07 22:07:27;;;;;;;;;;;;;;;22.90;40.98;95548.22;10290811;28;1900;-66
2023/06/07 22:12:29;;;;;;;;;;;;;;;22.90;41.24;95545.56;10303069;28;1862;-66
2023/06/07 22:17:29;;;;;;;;;;;;;;;22.90;41.14;95538.44;10303287;28;2329;-66
2023/06/07 22:22:30;;;;;;;;;;;;;;;22.90;41.19;95535.00;10303807;28;1914;-66
2023/06/07 22:27:30;;;;;;;;;;;;;;;22.91;41.22;95536.59;10302339;28;1906;-66
2023/06/07 22:32:32;;;;;;;;;;;;;;;22.89;41.26;95534.25;10300080;28;1903;-65
2023/06/07 22:37:32;;;;;;;;;;;;;;;22.89;41.38;95530.81;10303457;28;1898;-65
2023/06/07 22:42:33;;;;;;;;;;;;;;;22.88;41.04;95530.03;10304834;28;2439;-65
2023/06/07 22:47:34;;;;;;;;;;;;;;;22.88;41.29;95529.22;10301770;28;4327;-65
2023/06/07 22:52:34;;;;;;;;;;;;;;;22.88;41.36;95535.31;10300527;28;1963;-65
2023/06/07 22:57:35;;;;;;;;;;;;;;;22.89;41.23;95533.44;10301666;28;1842;-65
2023/06/07 23:02:36;;;;;;;;;;;;;;;22.87;41.04;95541.69;10302523;28;2037;-64
2023/06/07 23:07:36;;;;;;;;;;;;;;;22.88;41.04;95537.94;10305750;28;1858;-64
2023/06/07 23:12:39;;;;;;;;;;;;;;;22.87;41.27;95536.41;10301291;28;1834;-64
2023/06/07 23:17:41;;;;;;;;;;;;;;;22.86;41.20;95536.66;10302629;28;2404;-64
2023/06/07 23:22:42;;;;;;;;;;;;;;;22.85;41.34;95535.91;10301090;28;1995;-64
2023/06/07 23:27:43;;;;;;;;;;;;;;;22.86;41.06;95536.66;10302675;28;1946;-64
2023/06/07 23:32:43;;;;;;;;;;;;;;;22.85;41.20;95533.25;10304352;28;1876;-64
2023/06/07 23:37:43;;;;;;;;;;;;;;;22.85;41.06;95535.91;10303139;28;2412;-63
2023/06/07 23:42:44;;;;;;;;;;;;;;;22.83;41.25;95538.06;10303531;28;1968;-65
2023/06/07 23:47:44;;;;;;;;;;;;;;;22.83;41.20;95531.97;10297886;28;4629;-66
2023/06/07 23:52:44;;;;;;;;;;;;;;;22.83;41.25;95531.97;10304277;28;1874;-66
2023/06/07 23:57:45;;;;;;;;;;;;;;;22.82;41.39;95525.91;10309654;28;1907;-66
